This is the latest recevied weather packets stored in our database for station/object SP3WRO-13. If no packets are shown the sender has not sent any weather packets the latest 10 day(s).
| Time | Temp. | Humidity | Pressure | Rain* | Wind** | Luminosity | Snow |
|---|---|---|---|---|---|---|---|
| 1788491802 | 16.67° C | 91% | 1008.6 hPa | 1.02 mm | - | - | - |
| 1788490902 | 16.67° C | 91% | 1008.6 hPa | 1.02 mm | - | - | - |
| 1788490002 | 16.67° C | 91% | 1008.7 hPa | 1.02 mm | - | - | - |
| 1788489102 | 16.67° C | 91% | 1008.7 hPa | 1.02 mm | - | - | - |
| 1788488202 | 16.67° C | 91% | 1008.7 hPa | 1.02 mm | - | - | - |
| 1788487302 | 16.67° C | 92% | 1008.8 hPa | 1.02 mm | - | - | - |
| 1788485502 | 16.67° C | 91% | 1008.8 hPa | 1.02 mm | - | - | - |
| 1788484602 | 16.67° C | 92% | 1008.6 hPa | 1.02 mm | - | - | - |
| 1788483702 | 16.67° C | 91% | 1008.7 hPa | 1.02 mm | - | - | - |
| 1788482802 | 16.67° C | 90% | 1008.7 hPa | 1.02 mm | - | - | - |
| 1788481902 | 16.67° C | 90% | 1009 hPa | 1.02 mm | - | - | - |
| 1788480998 | 16.67° C | 91% | 1008.9 hPa | 1.02 mm | - | - | - |
| 1788480098 | 17.22° C | 90% | 1009.1 hPa | 1.02 mm | - | - | - |
| 1788478298 | 16.67° C | 91% | 1009.3 hPa | 1.02 mm | - | - | - |
| 1788475598 | 15.56° C | 96% | 1009.3 hPa | 1.02 mm | - | - | - |
| 1788471997 | 16.11° C | 94% | 1009.2 hPa | 1.02 mm | - | - | - |
| 1788471097 | 16.11° C | 94% | 1009.3 hPa | 1.02 mm | - | - | - |
| 1788470197 | 16.11° C | 95% | 1009.5 hPa | 1.02 mm | - | - | - |
| 1788469298 | 16.11° C | 95% | 1009.5 hPa | 1.02 mm | - | - | - |
| 1788468397 | 16.11° C | 95% | 1009.6 hPa | 1.02 mm | - | - | - |
| 1788465694 | 16.67° C | 92% | 1009.7 hPa | 1.02 mm | - | - | - |
| 1788464792 | 17.22° C | 86% | 1009.9 hPa | 0.25 mm | - | - | - |
| 1788449491 | 20° C | 68% | 1010.3 hPa | - | - | 50 W/m² | - |
| 1788444986 | 20.56° C | 63% | 1010.9 hPa | - | - | 108 W/m² | - |
| 1788444086 | 20.56° C | 66% | 1011.1 hPa | - | - | 143 W/m² | - |
* Rain latest 24 hours (hover to see other rain measurements)
** Current wind speed in m/s (hover to see current wind gust speed)